KVSF/VSF METAR and TAF weather

Enter ICAO airport designator
Station Type Date Time Source
KVSF METAR 2021/05/14 12:54 UTC NOAA

KVSF 141254Z AUTO 18003KT 10SM CLR 13/03 A3020 RMK AO2 SLP229 T01330028


Station Type Date Time Source
KVSF Decoded METAR 2021/05/14 12:54 UTC NOAA

HARTNESS STATE AIRPORT, VT, United States (KVSF) 43-21N 72-31W 175M
May 14, 2021 - 08:54 AM EDT / 2021.05.14 1254 UTC
Wind: from the S (180 degrees) at 3 MPH (3 KT):0
Visibility: 10 mile(s):0
Sky conditions: clear
Temperature: 55.9 F (13.3 C)
Dew Point: 37.0 F (2.8 C)
Relative Humidity: 48%
Pressure (altimeter): 30.2 in. Hg (1022 hPa)
ob: KVSF 141254Z AUTO 18003KT 10SM CLR 13/03 A3020 RMK AO2 SLP229 T01330028
cycle: 13

Station Type Date Time Source
KVSF TAF UTC NOAA

Error!

Example: see airport list